createdAt,value
2022-11-05T00:02:03.074Z,99682.66
2022-11-05T00:07:33.125Z,99695.56
2022-11-05T00:12:54.132Z,99702.22
2022-11-05T00:17:56.160Z,99702.63
2022-11-05T00:23:23.988Z,99706.25
2022-11-05T00:28:27.694Z,99704.66
2022-11-05T00:33:30.185Z,99701.25
2022-11-05T00:38:32.562Z,99688.22
2022-11-05T00:43:53.305Z,99689.41
2022-11-05T00:49:13.661Z,99694.28
2022-11-05T00:54:15.676Z,99686.09
2022-11-05T00:59:17.674Z,99683.91
2022-11-05T01:04:19.802Z,99691.91
2022-11-05T01:09:21.840Z,99688.37
2022-11-05T01:14:23.835Z,99705.44
2022-11-05T01:19:25.854Z,99691.44
2022-11-05T01:24:28.024Z,99697.25
2022-11-05T01:29:30.054Z,99685.25
2022-11-05T01:34:32.098Z,99685.25
2022-11-05T01:39:34.124Z,99683.91
2022-11-05T01:44:57.107Z,99688.28
2022-11-05T01:50:07.756Z,99685.81
2022-11-05T01:55:10.240Z,99695.19
2022-11-05T02:00:12.934Z,99709.41
2022-11-05T02:05:15.770Z,99717.63
2022-11-05T02:10:19.115Z,99745.88
2022-11-05T02:15:35.212Z,99734.69
2022-11-05T02:20:52.176Z,99720.19
2022-11-05T02:25:57.225Z,99719.84
2022-11-05T02:31:26.280Z,99726.78
2022-11-05T02:36:43.437Z,99721.03
2022-11-05T02:41:50.912Z,99730.94
2022-11-05T02:47:04.825Z,99726.00
2022-11-05T02:52:14.269Z,99729.00
2022-11-05T02:57:20.791Z,99741.06
2022-11-05T03:02:22.979Z,99745.19
2022-11-05T03:07:35.378Z,99749.28
2022-11-05T03:13:03.484Z,99742.97
2022-11-05T03:18:11.408Z,99746.00
2022-11-05T03:23:46.015Z,99746.31
2022-11-05T03:28:53.131Z,99768.19
2022-11-05T03:33:56.759Z,99772.31
2022-11-05T03:39:05.063Z,99772.03
2022-11-05T03:44:10.010Z,99764.06
2022-11-05T03:49:19.109Z,99781.63
2022-11-05T03:54:21.707Z,99778.56
2022-11-05T03:59:24.538Z,99791.44
2022-11-05T04:04:26.557Z,99787.87
2022-11-05T04:09:47.182Z,99787.91
2022-11-05T04:14:49.213Z,99786.25
2022-11-05T04:20:09.835Z,99772.31
2022-11-05T04:25:13.746Z,99775.84
2022-11-05T04:30:21.551Z,99765.19
2022-11-05T04:35:24.455Z,99769.59
2022-11-05T04:40:26.898Z,99766.84
2022-11-05T04:45:31.688Z,99753.41
2022-11-05T04:50:33.978Z,99761.62
2022-11-05T04:55:36.023Z,99760.50
2022-11-05T05:00:38.158Z,99767.09
2022-11-05T05:05:40.242Z,99768.75
2022-11-05T05:10:42.286Z,99784.06
2022-11-05T05:15:44.288Z,99773.13
2022-11-05T05:21:04.652Z,99791.19
2022-11-05T05:26:06.712Z,99780.22
2022-11-05T05:31:09.226Z,99784.06
2022-11-05T05:36:11.696Z,99778.06
2022-11-05T05:41:13.819Z,99793.66
2022-11-05T05:46:18.078Z,99801.59
2022-11-05T05:51:20.187Z,99812.81
2022-11-05T05:56:22.275Z,99798.28
2022-11-05T06:01:24.438Z,99807.34
2022-11-05T06:06:26.633Z,99832.81
2022-11-05T06:11:28.796Z,99829.78
2022-11-05T06:16:35.796Z,99844.00
2022-11-05T06:21:37.997Z,99848.69
2022-11-05T06:26:42.898Z,99858.53
2022-11-05T06:31:44.972Z,99868.38
2022-11-05T06:36:47.028Z,99870.31
2022-11-05T06:42:16.478Z,99882.62
2022-11-05T06:47:11.548Z,99875.50
2022-11-05T06:52:14.858Z,99896.03
2022-11-05T06:57:16.900Z,99888.66
2022-11-05T07:02:19.165Z,99892.47
2022-11-05T07:07:21.235Z,99899.06
2022-11-05T07:12:23.301Z,99902.59
2022-11-05T07:17:25.379Z,99890.81
2022-11-05T07:22:27.441Z,99885.53
2022-11-05T07:27:29.429Z,99891.59
2022-11-05T07:32:31.439Z,99900.91
2022-11-05T07:37:33.475Z,99898.12
2022-11-05T07:42:35.495Z,99904.44
2022-11-05T07:47:39.160Z,99897.00
2022-11-05T07:52:41.444Z,99899.47
2022-11-05T07:57:45.088Z,99912.59
2022-11-05T08:03:18.222Z,99900.78
2022-11-05T08:08:20.790Z,99899.94
2022-11-05T08:13:22.791Z,99896.06
2022-11-05T08:18:31.314Z,99901.28
2022-11-05T08:23:33.563Z,99899.34
2022-11-05T08:28:35.588Z,99885.03
2022-11-05T08:33:37.654Z,99883.31
2022-11-05T08:38:39.709Z,99873.44
2022-11-05T08:43:41.753Z,99869.38
2022-11-05T08:48:43.769Z,99881.19
2022-11-05T08:53:45.878Z,99885.31
2022-11-05T08:58:47.945Z,99890.81
2022-11-05T09:03:51.923Z,99886.84
2022-11-05T09:08:54.142Z,99894.66
2022-11-05T09:13:56.210Z,99889.81
2022-11-05T09:18:58.298Z,99905.81
2022-11-05T09:24:00.563Z,99912.72
2022-11-05T09:29:02.580Z,99914.50
2022-11-05T09:34:04.591Z,99930.75
2022-11-05T09:39:06.713Z,99911.72
2022-11-05T09:44:15.849Z,99919.00
2022-11-05T09:49:26.394Z,99925.34
2022-11-05T09:54:33.506Z,99904.09
2022-11-05T09:59:50.670Z,99902.03
2022-11-05T10:04:56.807Z,99919.53
2022-11-05T10:10:04.645Z,99915.94
2022-11-05T10:15:13.140Z,99912.38
2022-11-05T10:20:38.936Z,99908.41
2022-11-05T10:26:09.320Z,99915.22
2022-11-05T10:31:14.812Z,99911.09
2022-11-05T10:36:32.131Z,99912.41
2022-11-05T10:41:44.816Z,99908.09
2022-11-05T10:47:12.312Z,99916.78
2022-11-05T10:52:26.694Z,99915.38
2022-11-05T10:57:35.743Z,99937.12
2022-11-05T11:02:37.848Z,99931.50
2022-11-05T11:07:40.962Z,99920.19
2022-11-05T11:12:43.559Z,99938.47
2022-11-05T11:17:45.664Z,99932.34
2022-11-05T11:23:14.408Z,99938.31
2022-11-05T11:28:29.555Z,99952.44
2022-11-05T11:33:33.656Z,99934.28
2022-11-05T11:38:37.138Z,99936.03
2022-11-05T11:43:42.244Z,99942.47
2022-11-05T11:48:47.654Z,99933.31
2022-11-05T11:53:49.904Z,99943.09
2022-11-05T11:58:54.012Z,99931.31
2022-11-05T12:04:28.695Z,99932.28
2022-11-05T12:10:04.411Z,99933.47
2022-11-05T12:15:15.645Z,99944.47
2022-11-05T12:20:32.914Z,99937.47
2022-11-05T12:26:04.403Z,99934.09
2022-11-05T12:31:26.218Z,99943.47
2022-11-05T12:36:40.304Z,99962.00
2022-11-05T12:41:49.223Z,99968.97
2022-11-05T12:47:03.329Z,99969.34
2022-11-05T12:52:24.326Z,99969.19
2022-11-05T12:57:29.612Z,99980.91
2022-11-05T13:02:59.758Z,99989.09
2022-11-05T13:08:09.274Z,99989.59
2022-11-05T13:13:30.238Z,99993.63
2022-11-05T13:19:04.785Z,100005.41
2022-11-05T13:24:23.615Z,99997.19
2022-11-05T13:29:34.595Z,100014.25
2022-11-05T13:34:37.868Z,100004.81
2022-11-05T13:40:11.067Z,100003.25
2022-11-05T13:45:21.911Z,99997.53
2022-11-05T13:50:30.556Z,100004.00
2022-11-05T13:55:56.287Z,100014.00
2022-11-05T14:01:36.854Z,100007.53
2022-11-05T14:06:39.105Z,100016.31
2022-11-05T14:11:48.095Z,100023.63
2022-11-05T14:17:14.142Z,100017.78
2022-11-05T14:22:37.686Z,100024.97
2022-11-05T14:27:39.742Z,100026.16
2022-11-05T14:32:45.912Z,100032.50
2022-11-05T14:37:54.168Z,100039.44
2022-11-05T14:42:59.800Z,100045.78
2022-11-05T14:48:07.239Z,100054.47
2022-11-05T14:53:37.693Z,100053.22
2022-11-05T14:58:41.513Z,100060.75
2022-11-05T15:04:01.946Z,100074.66
2022-11-05T15:09:11.145Z,100075.25
2022-11-05T15:14:19.606Z,100068.34
2022-11-05T15:19:27.170Z,100071.19
2022-11-05T15:24:31.683Z,100078.69
2022-11-05T15:29:33.978Z,100081.25
2022-11-05T15:34:36.121Z,100083.81
2022-11-05T15:39:42.517Z,100091.81
2022-11-05T15:44:55.672Z,100093.16
2022-11-05T15:50:01.398Z,100094.41
2022-11-05T15:55:12.408Z,100097.38
2022-11-05T16:00:29.019Z,100096.09
2022-11-05T16:05:35.277Z,100103.84
2022-11-05T16:10:39.126Z,100112.63
2022-11-05T16:15:53.891Z,100117.06
2022-11-05T16:21:18.271Z,100123.22
2022-11-05T16:27:01.761Z,100136.13
2022-11-05T16:32:04.142Z,100134.12
2022-11-05T16:37:08.477Z,100146.34
2022-11-05T16:42:22.646Z,100139.06
2022-11-05T16:47:26.375Z,100144.88
2022-11-05T16:52:28.657Z,100159.84
2022-11-05T16:57:32.097Z,100166.50
2022-11-05T17:02:34.323Z,100172.91
2022-11-05T17:07:41.216Z,100169.44
2022-11-05T17:12:45.546Z,100192.06
2022-11-05T17:17:48.224Z,100193.50
2022-11-05T17:22:50.286Z,100195.44
2022-11-05T17:27:52.670Z,100203.72
2022-11-05T17:32:54.895Z,100209.81
2022-11-05T17:37:57.231Z,100212.84
2022-11-05T17:42:59.316Z,100215.06
2022-11-05T17:48:03.348Z,100224.94
2022-11-05T17:53:05.470Z,100227.41
2022-11-05T17:58:07.610Z,100227.41
2022-11-05T18:03:11.159Z,100238.69
2022-11-05T18:08:13.575Z,100229.38
2022-11-05T18:13:15.843Z,100229.09
2022-11-05T18:18:18.166Z,100239.50
2022-11-05T18:23:21.300Z,100242.59
2022-11-05T18:28:23.374Z,100249.97
2022-11-05T18:33:25.507Z,100254.13
2022-11-05T18:38:27.596Z,100262.09
2022-11-05T18:43:29.601Z,100266.50
2022-11-05T18:48:32.597Z,100276.66
2022-11-05T18:53:34.643Z,100283.00
2022-11-05T18:58:38.759Z,100295.06
2022-11-05T19:03:41.125Z,100302.50
2022-11-05T19:08:44.181Z,100307.16
2022-11-05T19:13:46.407Z,100310.75
2022-11-05T19:18:49.367Z,100315.13
2022-11-05T19:23:52.507Z,100325.28
2022-11-05T19:28:54.587Z,100333.56
2022-11-05T19:33:56.941Z,100343.44
2022-11-05T19:39:09.711Z,100340.12
2022-11-05T19:44:11.743Z,100342.88
2022-11-05T19:49:13.825Z,100352.22
2022-11-05T19:54:15.899Z,100361.03
2022-11-05T19:59:17.970Z,100357.19
2022-11-05T20:04:19.972Z,100361.00
2022-11-05T20:09:23.141Z,100372.00
2022-11-05T20:14:26.611Z,100376.41
2022-11-05T20:19:28.668Z,100386.56
2022-11-05T20:24:30.953Z,100392.34
2022-11-05T20:29:35.548Z,100394.00
2022-11-05T20:34:38.127Z,100404.44
2022-11-05T20:39:40.237Z,100407.47
2022-11-05T20:44:43.633Z,100412.69
2022-11-05T20:49:45.706Z,100414.88
2022-11-05T20:54:48.026Z,100415.44
2022-11-05T20:59:50.047Z,100418.19
2022-11-05T21:04:52.092Z,100423.69
2022-11-05T21:09:54.240Z,100431.34
2022-11-05T21:14:56.421Z,100431.91
2022-11-05T21:19:58.634Z,100435.75
2022-11-05T21:25:00.710Z,100436.31
2022-11-05T21:30:03.390Z,100438.25
2022-11-05T21:35:05.904Z,100430.81
2022-11-05T21:40:08.629Z,100436.84
2022-11-05T21:45:11.182Z,100430.00
2022-11-05T21:50:15.205Z,100431.91
2022-11-05T21:55:38.062Z,100439.59
2022-11-05T22:00:40.114Z,100440.94
2022-11-05T22:05:42.172Z,100441.22
2022-11-05T22:10:44.223Z,100445.09
2022-11-05T22:15:55.420Z,100446.19
2022-11-05T22:20:57.457Z,100451.69
2022-11-05T22:26:01.038Z,100451.13
2022-11-05T22:31:03.112Z,100445.91
2022-11-05T22:36:05.457Z,100447.28
2022-11-05T22:41:08.521Z,100446.19
2022-11-05T22:46:13.267Z,100451.38
2022-11-05T22:51:18.722Z,100451.66
2022-11-05T22:56:28.966Z,100456.91
2022-11-05T23:01:31.396Z,100449.47
2022-11-05T23:06:52.818Z,100461.00
2022-11-05T23:11:57.345Z,100454.97
2022-11-05T23:17:18.277Z,100454.44
2022-11-05T23:22:43.792Z,100461.00
2022-11-05T23:27:49.096Z,100459.34
2022-11-05T23:32:52.581Z,100472.56
2022-11-05T23:38:13.430Z,100473.91
2022-11-05T23:43:34.360Z,100478.31
2022-11-05T23:48:37.918Z,100490.97
2022-11-05T23:53:41.314Z,100488.75
2022-11-05T23:58:43.642Z,100480.81
